Terminal Aerodrome Forecast
Issued by NWS Pueblo, CO

Home | Current Version | Previous Version | Text Only | Print | Product List | Glossary On
Versions: 1 2 3 4 5 6 7 8 9 10 11 12 13 14 15 16 17 18 19 20 21 22 23 24 25 26 27 28 29 30 31 32 33 34 35 36 37 38 39 40 41 42
000
FTUS45 KPUB 282335
TAFPUB
TAF
KPUB 282335Z 2900/2924 01012KT P6SM VCTS SCT060CB BKN110
      TEMPO 2900/2901 02015G25KT -RA BKN060
     FM290100 01011KT P6SM SCT100 BKN150
     FM290400 33006KT P6SM SCT150
     FM291600 28008KT P6SM SCT200
     FM292100 12008KT P6SM SCT080 SCT200=

USA.gov is the U.S. government's official web portal to all federal, state and local government web resources and services.